Time,TemperatureF,DewpointF,PressureIn,WindDirection,WindDirectionDegrees,WindSpeedMPH,WindSpeedGustMPH,Humidity,HourlyPrecipIn,Conditions,Clouds,dailyrainin,SoftwareType,DateUTC
2013-04-14 00:11:00,60.1,52.0,29.79,South,181,2.0,6.0,75,0.00,,,0.00,weatherlink.com 1.10,2013-04-14 05:11:00,
2013-04-14 00:26:00,59.5,52.0,29.78,SSE,159,3.0,3.0,76,0.00,,,0.00,weatherlink.com 1.10,2013-04-14 05:26:00,
2013-04-14 00:56:00,58.0,52.0,29.77,South,191,1.0,3.0,80,0.00,,,0.00,weatherlink.com 1.10,2013-04-14 05:56:00,
2013-04-14 01:11:00,57.6,52.0,29.76,SW,214,1.0,3.0,81,0.00,,,0.00,weatherlink.com 1.10,2013-04-14 06:11:00,
2013-04-14 01:26:00,57.5,52.0,29.76,SSW,212,2.0,5.0,83,0.00,,,0.00,weatherlink.com 1.10,2013-04-14 06:26:00,
2013-04-14 01:41:00,57.4,53.0,29.75,SSW,205,2.0,4.0,84,0.00,,,0.00,weatherlink.com 1.10,2013-04-14 06:41:00,
2013-04-14 02:11:00,56.8,53.0,29.74,SW,221,1.0,5.0,87,0.00,,,0.00,weatherlink.com 1.10,2013-04-14 07:11:00,
2013-04-14 02:27:00,56.9,53.0,29.73,SW,219,2.0,8.0,88,0.00,,,0.00,weatherlink.com 1.10,2013-04-14 07:27:00,
2013-04-14 02:42:00,57.1,54.0,29.71,SSE,152,3.0,5.0,88,0.00,,,0.00,weatherlink.com 1.10,2013-04-14 07:42:00,
2013-04-14 02:57:00,56.8,54.0,29.71,SW,218,2.0,7.0,89,0.00,,,0.00,weatherlink.com 1.10,2013-04-14 07:57:00,
2013-04-14 03:12:00,56.1,53.0,29.70,SW,221,2.0,4.0,90,0.00,,,0.00,weatherlink.com 1.10,2013-04-14 08:12:00,
2013-04-14 03:27:00,56.1,54.0,29.70,South,190,3.0,4.0,91,0.00,,,0.00,weatherlink.com 1.10,2013-04-14 08:27:00,
2013-04-14 03:42:00,56.5,54.0,29.69,SSW,195,3.0,7.0,91,0.00,,,0.00,weatherlink.com 1.10,2013-04-14 08:42:00,
2013-04-14 03:57:00,56.8,54.0,29.69,SSE,156,1.0,6.0,91,0.00,,,0.00,weatherlink.com 1.10,2013-04-14 08:57:00,
2013-04-14 04:12:00,56.4,54.0,29.69,SSW,204,1.0,4.0,91,0.00,,,0.00,weatherlink.com 1.10,2013-04-14 09:12:00,
2013-04-14 04:27:00,56.0,54.0,29.69,SSW,195,0.0,4.0,91,0.00,,,0.00,weatherlink.com 1.10,2013-04-14 09:27:00,
2013-04-14 04:42:00,55.9,54.0,29.70,SE,135,2.0,4.0,92,0.00,,,0.00,weatherlink.com 1.10,2013-04-14 09:42:00,
2013-04-14 04:57:00,56.8,54.0,29.69,SW,225,1.0,6.0,91,0.00,,,0.00,weatherlink.com 1.10,2013-04-14 09:57:00,
2013-04-14 05:13:00,57.4,55.0,29.69,WSW,240,2.0,4.0,91,0.00,,,0.00,weatherlink.com 1.10,2013-04-14 10:13:00,
2013-04-14 05:27:00,58.2,55.0,29.69,SSW,195,2.0,9.0,90,0.00,,,0.00,weatherlink.com 1.10,2013-04-14 10:27:00,
2013-04-14 05:42:00,58.8,56.0,29.68,SSE,153,11.0,11.0,90,0.00,,,0.00,weatherlink.com 1.10,2013-04-14 10:42:00,
2013-04-14 05:57:00,59.2,57.0,29.68,SW,236,4.0,8.0,91,0.00,,,0.00,weatherlink.com 1.10,2013-04-14 10:57:00,
2013-04-14 06:12:00,59.2,57.0,29.68,SW,226,2.0,6.0,92,0.00,,,0.00,weatherlink.com 1.10,2013-04-14 11:12:00,
2013-04-14 06:27:00,59.3,57.0,29.68,SSW,195,6.0,6.0,92,0.00,,,0.00,weatherlink.com 1.10,2013-04-14 11:27:00,
2013-04-14 06:42:00,59.7,58.0,29.68,SSW,197,2.0,8.0,93,0.00,,,0.00,weatherlink.com 1.10,2013-04-14 11:42:00,
2013-04-14 06:57:00,60.0,58.0,29.67,SSW,198,2.0,9.0,93,0.00,,,0.00,weatherlink.com 1.10,2013-04-14 11:57:00,
2013-04-14 07:12:00,60.1,58.0,29.68,SSW,200,2.0,9.0,93,0.00,,,0.00,weatherlink.com 1.10,2013-04-14 12:12:00,
2013-04-14 07:27:00,60.2,59.0,29.68,SE,127,3.0,9.0,94,0.00,,,0.00,weatherlink.com 1.10,2013-04-14 12:27:00,
2013-04-14 07:42:00,60.3,59.0,29.68,SW,229,1.0,7.0,94,0.00,,,0.00,weatherlink.com 1.10,2013-04-14 12:42:00,
2013-04-14 07:57:00,60.4,59.0,29.69,South,173,7.0,10.0,94,0.00,,,0.00,weatherlink.com 1.10,2013-04-14 12:57:00,
2013-04-14 08:12:00,60.4,59.0,29.69,WSW,252,5.0,10.0,94,0.00,,,0.00,weatherlink.com 1.10,2013-04-14 13:12:00,
2013-04-14 08:27:00,60.6,59.0,29.69,SSW,194,3.0,8.0,95,0.00,,,0.00,weatherlink.com 1.10,2013-04-14 13:27:00,
2013-04-14 08:42:00,60.8,59.0,29.69,South,183,6.0,9.0,94,0.00,,,0.00,weatherlink.com 1.10,2013-04-14 13:42:00,
2013-04-14 08:57:00,61.1,59.0,29.69,SSE,166,4.0,7.0,94,0.00,,,0.00,weatherlink.com 1.10,2013-04-14 13:57:00,
2013-04-14 09:12:00,61.4,60.0,29.69,South,190,4.0,10.0,94,0.00,,,0.00,weatherlink.com 1.10,2013-04-14 14:12:00,
2013-04-14 09:27:00,61.6,60.0,29.70,SW,229,2.0,11.0,93,0.00,,,0.00,weatherlink.com 1.10,2013-04-14 14:27:00,
2013-04-14 09:42:00,61.6,60.0,29.71,SW,229,4.0,13.0,93,0.00,,,0.00,weatherlink.com 1.10,2013-04-14 14:42:00,
2013-04-14 09:57:00,61.7,60.0,29.71,SW,226,5.0,8.0,93,0.00,,,0.00,weatherlink.com 1.10,2013-04-14 14:57:00,
2013-04-14 10:12:00,62.0,60.0,29.71,SSW,208,6.0,10.0,92,0.00,,,0.00,weatherlink.com 1.10,2013-04-14 15:12:00,
2013-04-14 10:27:00,62.7,60.0,29.71,South,172,3.0,6.0,92,0.00,,,0.00,weatherlink.com 1.10,2013-04-14 15:27:00,
2013-04-14 10:42:00,63.4,61.0,29.70,WSW,237,3.0,8.0,90,0.00,,,0.00,weatherlink.com 1.10,2013-04-14 15:42:00,
2013-04-14 10:57:00,64.3,61.0,29.70,ESE,120,1.0,10.0,89,0.00,,,0.00,weatherlink.com 1.10,2013-04-14 15:57:00,
2013-04-14 11:12:00,65.7,62.0,29.70,SW,221,2.0,10.0,86,0.00,,,0.00,weatherlink.com 1.10,2013-04-14 16:12:00,
2013-04-14 11:28:00,67.3,62.0,29.70,West,272,3.0,8.0,83,0.00,,,0.00,weatherlink.com 1.10,2013-04-14 16:28:00,
2013-04-14 11:43:00,70.2,63.0,29.71,WSW,248,2.0,14.0,77,0.00,,,0.00,weatherlink.com 1.10,2013-04-14 16:43:00,
2013-04-14 11:58:00,72.5,63.0,29.70,WSW,239,4.0,14.0,71,0.00,,,0.00,weatherlink.com 1.10,2013-04-14 16:58:00,
2013-04-14 12:13:00,73.6,63.0,29.69,WSW,246,7.0,12.0,70,0.00,,,0.00,weatherlink.com 1.10,2013-04-14 17:13:00,
2013-04-14 12:28:00,74.0,63.0,29.68,SSW,207,5.0,13.0,68,0.00,,,0.00,weatherlink.com 1.10,2013-04-14 17:28:00,
2013-04-14 12:43:00,75.7,63.0,29.68,SW,232,6.0,14.0,65,0.00,,,0.00,weatherlink.com 1.10,2013-04-14 17:43:00,
2013-04-14 12:58:00,77.8,63.0,29.67,SSE,156,3.0,9.0,61,0.00,,,0.00,weatherlink.com 1.10,2013-04-14 17:58:00,
2013-04-14 13:26:00,80.4,63.0,29.65,SW,222,2.0,9.0,56,0.00,,,0.00,weatherlink.com 1.10,2013-04-14 18:26:00,
2013-04-14 13:43:00,81.7,63.0,29.64,West,260,3.0,13.0,54,0.00,,,0.00,weatherlink.com 1.10,2013-04-14 18:43:00,
2013-04-14 13:58:00,83.2,64.0,29.64,SW,222,6.0,11.0,52,0.00,,,0.00,weatherlink.com 1.10,2013-04-14 18:58:00,
2013-04-14 14:13:00,83.9,62.0,29.63,SW,236,1.0,12.0,48,0.00,,,0.00,weatherlink.com 1.10,2013-04-14 19:13:00,
2013-04-14 14:39:00,84.6,62.0,29.62,SW,219,9.0,11.0,46,0.00,,,0.00,weatherlink.com 1.10,2013-04-14 19:39:00,
2013-04-14 14:58:00,86.4,61.0,29.61,SSW,193,4.0,10.0,42,0.00,,,0.00,weatherlink.com 1.10,2013-04-14 19:58:00,
2013-04-14 15:13:00,85.8,59.0,29.60,West,269,5.0,13.0,41,0.00,,,0.00,weatherlink.com 1.10,2013-04-14 20:13:00,
2013-04-14 15:28:00,86.3,61.0,29.59,SSE,152,8.0,13.0,42,0.00,,,0.00,weatherlink.com 1.10,2013-04-14 20:28:00,
2013-04-14 15:43:00,87.6,59.0,29.58,SW,231,4.0,12.0,38,0.00,,,0.00,weatherlink.com 1.10,2013-04-14 20:43:00,
2013-04-14 15:58:00,87.5,58.0,29.58,SW,235,2.0,13.0,37,0.00,,,0.00,weatherlink.com 1.10,2013-04-14 20:58:00,
2013-04-14 16:13:00,87.9,56.0,29.57,SSW,212,7.0,11.0,34,0.00,,,0.00,weatherlink.com 1.10,2013-04-14 21:13:00,
2013-04-14 16:28:00,88.0,58.0,29.56,SW,228,6.0,12.0,36,0.00,,,0.00,weatherlink.com 1.10,2013-04-14 21:28:00,
2013-04-14 16:44:00,88.6,56.0,29.56,SSW,197,5.0,12.0,33,0.00,,,0.00,weatherlink.com 1.10,2013-04-14 21:44:00,
2013-04-14 16:59:00,88.7,56.0,29.56,SSE,150,5.0,11.0,33,0.00,,,0.00,weatherlink.com 1.10,2013-04-14 21:59:00,
2013-04-14 17:14:00,88.4,55.0,29.56,SW,219,6.0,11.0,32,0.00,,,0.00,weatherlink.com 1.10,2013-04-14 22:14:00,
2013-04-14 17:29:00,88.9,55.0,29.55,SSW,203,3.0,11.0,32,0.00,,,0.00,weatherlink.com 1.10,2013-04-14 22:29:00,
2013-04-14 17:44:00,88.2,54.0,29.55,WSW,240,4.0,10.0,31,0.00,,,0.00,weatherlink.com 1.10,2013-04-14 22:44:00,
2013-04-14 17:59:00,88.2,54.0,29.55,SW,225,1.0,12.0,31,0.00,,,0.00,weatherlink.com 1.10,2013-04-14 22:59:00,
2013-04-14 18:29:00,87.4,51.0,29.55,WSW,252,4.0,13.0,29,0.00,,,0.00,weatherlink.com 1.10,2013-04-14 23:29:00,
2013-04-14 18:44:00,87.4,52.0,29.55,SSW,197,5.0,13.0,30,0.00,,,0.00,weatherlink.com 1.10,2013-04-14 23:44:00,
2013-04-14 18:59:00,87.0,52.0,29.55,SW,217,5.0,10.0,30,0.00,,,0.00,weatherlink.com 1.10,2013-04-14 23:59:00,
2013-04-14 19:14:00,86.4,52.0,29.55,SSW,203,3.0,12.0,30,0.00,,,0.00,weatherlink.com 1.10,2013-04-15 00:14:00,
2013-04-14 19:43:00,83.5,51.0,29.56,SE,141,3.0,9.0,33,0.00,,,0.00,weatherlink.com 1.10,2013-04-15 00:43:00,
2013-04-14 19:59:00,81.9,52.0,29.56,SSE,158,2.0,5.0,36,0.00,,,0.00,weatherlink.com 1.10,2013-04-15 00:59:00,
2013-04-14 20:15:00,80.3,53.0,29.57,SSE,166,1.0,5.0,39,0.00,,,0.00,weatherlink.com 1.10,2013-04-15 01:15:00,
2013-04-14 20:29:00,79.3,54.0,29.57,SSW,193,1.0,4.0,41,0.00,,,0.00,weatherlink.com 1.10,2013-04-15 01:29:00,
2013-04-14 20:44:00,77.7,53.0,29.57,South,176,1.0,2.0,43,0.00,,,0.00,weatherlink.com 1.10,2013-04-15 01:44:00,
2013-04-14 20:59:00,76.1,54.0,29.58,SSW,201,0.0,64.0,47,0.00,,,0.00,weatherlink.com 1.10,2013-04-15 01:59:00,
2013-04-14 21:31:00,70.9,54.0,29.59,South,187,0.0,1.0,56,0.00,,,0.00,weatherlink.com 1.10,2013-04-15 02:31:00,
2013-04-14 21:43:00,67.5,54.0,29.60,SW,218,0.0,1.0,63,0.00,,,0.00,weatherlink.com 1.10,2013-04-15 02:43:00,
2013-04-14 21:58:00,65.8,54.0,29.60,SW,218,0.0,1.0,67,0.00,,,0.00,weatherlink.com 1.10,2013-04-15 02:58:00,
2013-04-14 22:13:00,65.5,55.0,29.61,SW,218,0.0,49.0,69,0.00,,,0.00,weatherlink.com 1.10,2013-04-15 03:13:00,
2013-04-14 22:29:00,64.0,54.0,29.62,SW,219,0.0,0.0,71,0.00,,,0.00,weatherlink.com 1.10,2013-04-15 03:29:00,
2013-04-14 22:43:00,63.1,54.0,29.62,SW,219,0.0,0.0,71,0.00,,,0.00,weatherlink.com 1.10,2013-04-15 03:43:00,
2013-04-14 22:58:00,61.9,54.0,29.62,SW,219,0.0,0.0,74,0.00,,,0.00,weatherlink.com 1.10,2013-04-15 03:58:00,
2013-04-14 23:13:00,61.1,54.0,29.62,SW,219,0.0,0.0,77,0.00,,,0.00,weatherlink.com 1.10,2013-04-15 04:13:00,
2013-04-14 23:28:00,60.6,54.0,29.63,WNW,296,2.0,3.0,80,0.00,,,0.00,weatherlink.com 1.10,2013-04-15 04:28:00,